createdAt,value
2019-01-02T00:00:47.271Z,63.19
2019-01-02T00:03:13.568Z,64.41
2019-01-02T00:05:41.625Z,63.47
2019-01-02T00:08:07.879Z,62.83
2019-01-02T00:10:35.984Z,62.36
2019-01-02T00:15:49.916Z,62.60
2019-01-02T00:18:16.266Z,62.45
2019-01-02T00:20:42.424Z,62.54
2019-01-02T00:23:10.510Z,63.28
2019-01-02T00:25:36.867Z,63.38
2019-01-02T00:28:04.923Z,63.77
2019-01-02T00:30:31.105Z,63.92
2019-01-02T00:32:59.172Z,64.29
2019-01-02T00:35:25.323Z,65.65
2019-01-02T00:37:53.424Z,64.88
2019-01-02T00:40:19.568Z,64.69
2019-01-02T00:42:45.920Z,64.44
2019-01-02T00:45:12.103Z,64.33
2019-01-02T00:47:40.155Z,64.13
2019-01-02T00:50:26.195Z,64.02
2019-01-02T00:52:52.354Z,63.94
2019-01-02T00:55:18.508Z,63.64
2019-01-02T00:57:44.692Z,63.82
2019-01-02T01:00:30.729Z,63.59
2019-01-02T01:02:56.916Z,63.75
2019-01-02T01:05:23.070Z,63.98
2019-01-02T01:07:49.227Z,64.38
2019-01-02T01:10:56.821Z,63.98
2019-01-02T01:13:22.983Z,63.55
2019-01-02T01:15:51.039Z,63.39
2019-01-02T01:18:17.338Z,63.18
2019-01-02T01:20:45.395Z,63.29
2019-01-02T01:23:11.551Z,63.48
2019-01-02T01:25:39.689Z,63.58
2019-01-02T01:28:05.843Z,64.04
2019-01-02T01:30:31.998Z,64.58
2019-01-02T01:33:00.189Z,64.31
2019-01-02T01:35:26.344Z,65.36
2019-01-02T01:37:54.505Z,66.04
2019-01-02T01:40:20.715Z,66.12
2019-01-02T01:42:46.873Z,66.66
2019-01-02T01:45:13.247Z,67.16
2019-01-02T01:47:39.426Z,67.12
2019-01-02T01:53:07.993Z,66.46
2019-01-02T01:55:34.139Z,66.48
2019-01-02T01:58:00.289Z,67.68
2019-01-02T02:00:26.489Z,69.60
2019-01-02T02:02:52.663Z,68.61
2019-01-02T02:05:20.715Z,68.39
2019-01-02T02:07:46.897Z,68.28
2019-01-02T02:10:15.155Z,67.72
2019-01-02T02:12:41.314Z,68.04
2019-01-02T02:15:48.951Z,67.80
2019-01-02T02:18:15.116Z,67.78
2019-01-02T02:20:43.176Z,67.72
2019-01-02T02:23:09.359Z,67.48
2019-01-02T02:25:37.413Z,67.49
2019-01-02T02:28:03.580Z,67.90
2019-01-02T02:30:29.977Z,68.66
2019-01-02T02:35:48.376Z,68.81
2019-01-02T02:38:16.432Z,70.23
2019-01-02T02:40:44.492Z,70.87
2019-01-02T02:43:10.779Z,70.02
2019-01-02T02:45:36.935Z,70.25
2019-01-02T02:48:04.990Z,70.96
2019-01-02T02:50:33.081Z,70.71
2019-01-02T02:53:01.254Z,70.41
2019-01-02T02:55:27.603Z,70.27
2019-01-02T02:57:53.801Z,70.37
2019-01-02T03:00:19.959Z,71.48
2019-01-02T03:02:46.117Z,71.02
2019-01-02T03:05:53.714Z,70.62
2019-01-02T03:08:19.874Z,70.88
2019-01-02T03:10:47.928Z,71.18
2019-01-02T03:13:16.027Z,70.83
2019-01-02T03:15:44.188Z,71.06
2019-01-02T03:18:10.540Z,71.55
2019-01-02T03:20:36.729Z,71.75
2019-01-02T03:23:02.892Z,71.29
2019-01-02T03:25:30.956Z,71.87
2019-01-02T03:27:59.093Z,72.42
2019-01-02T03:30:27.152Z,72.24
2019-01-02T03:32:55.212Z,71.63
2019-01-02T03:35:23.436Z,71.78
2019-01-02T03:37:49.595Z,71.79
2019-01-02T03:40:15.755Z,70.75
2019-01-02T03:42:41.943Z,70.95
2019-01-02T03:51:22.920Z,72.13
2019-01-02T03:53:49.081Z,71.65
2019-01-02T03:56:15.232Z,72.23
2019-01-02T03:58:41.417Z,72.42
2019-01-02T04:01:07.577Z,71.95
2019-01-02T04:03:33.727Z,72.42
2019-01-02T04:05:59.917Z,72.22
2019-01-02T04:09:07.510Z,71.68
2019-01-02T04:11:33.711Z,71.37
2019-01-02T04:13:59.868Z,70.69
2019-01-02T04:16:26.023Z,71.11
2019-01-02T04:18:52.210Z,70.59
2019-01-02T04:21:18.471Z,71.53
2019-01-02T04:23:44.615Z,71.46
2019-01-02T04:26:10.904Z,71.54
2019-01-02T04:28:37.108Z,71.39
2019-01-02T04:31:03.255Z,71.26
2019-01-02T04:36:23.018Z,70.82
2019-01-02T04:38:49.176Z,70.95
2019-01-02T04:41:15.332Z,70.89
2019-01-02T04:43:41.521Z,70.22
2019-01-02T04:46:07.789Z,70.27
2019-01-02T04:48:33.944Z,72.14
2019-01-02T04:51:00.136Z,73.30
2019-01-02T04:53:26.287Z,75.33
2019-01-02T04:55:52.446Z,75.42
2019-01-02T04:58:18.636Z,73.83
2019-01-02T05:00:44.795Z,74.07
2019-01-02T05:03:10.952Z,73.50
2019-01-02T05:05:37.146Z,72.47
2019-01-02T05:08:03.302Z,71.60
2019-01-02T05:10:29.451Z,71.31
2019-01-02T05:12:55.635Z,71.26
2019-01-02T05:15:21.783Z,70.91
2019-01-02T05:17:47.944Z,71.75
2019-01-02T05:20:14.135Z,72.33
2019-01-02T05:22:40.288Z,72.04
2019-01-02T05:25:47.871Z,70.97
2019-01-02T05:28:14.025Z,71.47
2019-01-02T05:30:40.189Z,70.48
2019-01-02T05:33:06.377Z,71.78
2019-01-02T05:35:32.532Z,71.38
2019-01-02T05:37:58.692Z,72.06
2019-01-02T05:40:24.885Z,71.27
2019-01-02T05:42:51.037Z,70.26
2019-01-02T05:45:17.194Z,70.11
2019-01-02T05:47:43.376Z,69.25
2019-01-02T05:50:09.537Z,70.60
2019-01-02T05:52:35.788Z,71.60
2019-01-02T05:55:01.981Z,71.61
2019-01-02T05:57:28.136Z,72.41
2019-01-02T05:59:54.294Z,72.37
2019-01-02T06:02:20.606Z,71.02
2019-01-02T06:04:46.767Z,70.35
2019-01-02T06:07:12.919Z,70.60
2019-01-02T06:09:39.107Z,71.25
2019-01-02T06:12:05.271Z,71.27
2019-01-02T06:14:31.425Z,70.38
2019-01-02T06:16:57.610Z,69.74
2019-01-02T06:19:23.769Z,68.17
2019-01-02T06:21:49.955Z,65.46
2019-01-02T06:24:16.139Z,62.93
2019-01-02T06:26:42.399Z,60.42
2019-01-02T06:29:08.562Z,57.03
2019-01-02T06:31:34.919Z,55.26
2019-01-02T06:34:01.097Z,54.09
2019-01-02T06:36:27.351Z,53.04
2019-01-02T06:38:53.540Z,52.57
2019-01-02T06:41:19.692Z,52.07
2019-01-02T06:43:45.853Z,52.09
2019-01-02T06:46:12.063Z,51.83
2019-01-02T06:48:38.217Z,51.88
2019-01-02T06:51:04.366Z,51.97
2019-01-02T06:53:30.544Z,55.05
2019-01-02T06:55:56.798Z,57.49
2019-01-02T06:58:22.955Z,58.97
2019-01-02T07:01:30.557Z,59.36
2019-01-02T07:03:56.712Z,59.10
2019-01-02T07:06:22.967Z,59.28
2019-01-02T07:08:49.166Z,60.89
2019-01-02T07:11:15.329Z,59.69
2019-01-02T07:13:41.480Z,60.09
2019-01-02T07:16:07.667Z,65.70
2019-01-02T07:18:33.820Z,65.71
2019-01-02T07:20:59.977Z,65.42
2019-01-02T07:23:26.279Z,66.30
2019-01-02T07:25:52.567Z,65.51
2019-01-02T07:28:18.713Z,64.59
2019-01-02T07:30:45.031Z,64.45
2019-01-02T07:33:11.233Z,64.43
2019-01-02T07:36:18.826Z,64.32
2019-01-02T07:45:39.179Z,61.37
2019-01-02T07:54:46.304Z,58.53
2019-01-02T07:57:51.965Z,58.30
2019-01-02T08:00:59.561Z,58.10
2019-01-02T08:07:06.056Z,57.60
2019-01-02T08:10:11.821Z,55.81
2019-01-02T08:13:19.439Z,54.37
2019-01-02T08:19:25.902Z,52.04
2019-01-02T08:28:33.504Z,48.29
2019-01-02T08:31:39.275Z,47.55
2019-01-02T08:34:45.078Z,47.00
2019-01-02T08:47:08.104Z,45.63
2019-01-02T08:50:13.874Z,42.89
2019-01-02T08:53:19.722Z,42.92
2019-01-02T08:59:39.080Z,47.53
2019-01-02T09:02:44.744Z,46.53
2019-01-02T09:05:52.338Z,44.37
2019-01-02T09:24:14.736Z,41.92
2019-01-02T09:27:15.995Z,41.09
2019-01-02T09:30:21.785Z,38.33
2019-01-02T09:45:31.723Z,43.44
2019-01-02T09:48:37.503Z,43.84
2019-01-02T09:51:43.171Z,43.05
2019-01-02T09:54:48.824Z,41.36
2019-01-02T09:57:54.617Z,38.37
2019-01-02T10:04:13.989Z,38.85
2019-01-02T10:07:19.653Z,37.15
2019-01-02T10:10:25.341Z,36.85
2019-01-02T10:22:46.197Z,38.99
2019-01-02T10:25:51.996Z,39.05
2019-01-02T10:28:59.597Z,38.44
2019-01-02T10:35:19.470Z,40.21
2019-01-02T10:38:25.350Z,41.84
2019-01-02T10:41:34.005Z,40.45
2019-01-02T10:50:54.255Z,41.00
2019-01-02T10:57:00.749Z,43.02
2019-01-02T11:06:08.411Z,45.97
2019-01-02T11:12:41.374Z,44.63
2019-01-02T11:15:47.123Z,44.32
2019-01-02T11:18:54.718Z,43.84
2019-01-02T11:25:07.208Z,45.11
2019-01-02T11:31:26.307Z,44.24
2019-01-02T11:34:32.094Z,44.67
2019-01-02T11:37:38.021Z,44.41
2019-01-02T11:40:43.688Z,46.27
2019-01-02T11:43:49.954Z,44.09
2019-01-02T11:46:16.112Z,42.81
2019-01-02T11:48:42.381Z,41.22
2019-01-02T11:51:08.564Z,43.05
2019-01-02T11:53:34.746Z,42.92
2019-01-02T11:56:01.029Z,42.93
2019-01-02T11:58:27.342Z,43.68
2019-01-02T12:00:53.491Z,45.18
2019-01-02T12:03:39.565Z,43.31
2019-01-02T12:06:05.847Z,42.69
2019-01-02T12:08:33.546Z,43.32
2019-01-02T12:10:59.743Z,43.27
2019-01-02T12:13:26.009Z,44.19
2019-01-02T12:15:52.179Z,44.83
2019-01-02T12:18:18.363Z,46.01
2019-01-02T12:20:44.516Z,45.88
2019-01-02T12:23:10.700Z,45.72
2019-01-02T12:25:36.886Z,45.35
2019-01-02T12:28:03.057Z,45.08
2019-01-02T12:30:29.415Z,44.86
2019-01-02T12:32:55.601Z,44.74
2019-01-02T12:35:21.769Z,46.62
2019-01-02T12:37:47.931Z,46.46
2019-01-02T12:40:14.118Z,46.44
2019-01-02T12:42:40.272Z,48.09
2019-01-02T12:45:06.705Z,48.26
2019-01-02T12:47:32.896Z,48.25
2019-01-02T12:49:59.057Z,48.61
2019-01-02T12:52:25.319Z,48.85
2019-01-02T12:54:51.550Z,48.18
2019-01-02T12:57:17.705Z,49.00
2019-01-02T12:59:43.862Z,49.10
2019-01-02T13:02:49.648Z,48.79
2019-01-02T13:05:55.300Z,48.41
2019-01-02T13:09:02.917Z,47.65
2019-01-02T13:15:15.352Z,47.41
2019-01-02T13:21:34.755Z,49.04
2019-01-02T13:30:48.093Z,48.97
2019-01-02T13:33:53.888Z,49.14
2019-01-02T13:37:01.500Z,48.85
2019-01-02T13:51:31.435Z,49.07
2019-01-02T13:53:57.603Z,49.88
2019-01-02T13:56:23.765Z,50.19
2019-01-02T13:58:50.067Z,50.59
2019-01-02T14:01:16.248Z,50.74
2019-01-02T14:06:36.685Z,51.56
2019-01-02T14:12:16.698Z,51.92
2019-01-02T14:14:42.856Z,51.02
2019-01-02T14:17:09.081Z,52.01
2019-01-02T14:19:35.337Z,53.02
2019-01-02T14:22:01.598Z,53.73
2019-01-02T14:24:27.856Z,53.55
2019-01-02T14:26:54.356Z,52.64
2019-01-02T14:29:20.638Z,52.32
2019-01-02T14:31:46.799Z,51.69
2019-01-02T14:34:13.017Z,52.12
2019-01-02T14:36:39.131Z,52.14
2019-01-02T14:42:06.055Z,53.11
2019-01-02T14:44:32.208Z,53.39
2019-01-02T14:46:58.363Z,53.97
2019-01-02T14:49:24.556Z,53.67
2019-01-02T14:51:50.709Z,54.67
2019-01-02T14:54:16.861Z,54.58
2019-01-02T14:56:43.044Z,54.25
2019-01-02T14:59:09.207Z,54.17
2019-01-02T15:01:35.372Z,54.11
2019-01-02T15:04:01.565Z,55.49
2019-01-02T15:06:27.725Z,54.93
2019-01-02T15:08:53.884Z,55.14
2019-01-02T15:11:20.070Z,55.56
2019-01-02T15:13:46.222Z,55.47
2019-01-02T15:16:12.389Z,55.46
2019-01-02T15:18:38.580Z,57.78
2019-01-02T15:21:04.729Z,57.26
2019-01-02T15:23:30.883Z,57.51
2019-01-02T15:25:57.080Z,57.02
2019-01-02T15:28:23.346Z,56.59
2019-01-02T15:30:49.504Z,57.86
2019-01-02T15:33:15.690Z,57.42
2019-01-02T15:35:41.846Z,56.12
2019-01-02T15:38:08.005Z,56.97
2019-01-02T15:40:34.192Z,54.97
2019-01-02T15:43:00.351Z,54.29
2019-01-02T15:45:26.716Z,53.95
2019-01-02T15:50:26.853Z,53.00
2019-01-02T15:52:52.980Z,53.23
2019-01-02T15:55:19.239Z,52.57
2019-01-02T15:57:45.534Z,53.34
2019-01-02T16:00:11.824Z,52.09
2019-01-02T16:02:37.973Z,52.42
2019-01-02T16:05:45.569Z,51.92
2019-01-02T16:08:11.827Z,52.28
2019-01-02T16:10:37.989Z,51.34
2019-01-02T16:13:04.251Z,51.59
2019-01-02T16:15:31.191Z,50.81
2019-01-02T16:17:57.915Z,51.08
2019-01-02T16:20:24.569Z,49.49
2019-01-02T16:22:51.157Z,50.26
2019-01-02T16:25:17.797Z,49.49
2019-01-02T16:27:44.097Z,49.69
2019-01-02T16:30:10.358Z,49.30
2019-01-02T16:32:36.727Z,50.26
2019-01-02T16:35:03.121Z,50.54
2019-01-02T16:37:29.279Z,51.41
2019-01-02T16:39:55.427Z,49.59
2019-01-02T16:42:21.607Z,49.11
2019-01-02T16:44:47.775Z,50.50
2019-01-02T16:47:13.937Z,50.30
2019-01-02T16:49:40.130Z,49.66
2019-01-02T16:52:06.288Z,49.77
2019-01-02T16:54:32.581Z,49.50
2019-01-02T16:56:58.773Z,50.38
2019-01-02T16:59:24.933Z,49.11
2019-01-02T17:01:51.092Z,49.74
2019-01-02T17:04:17.299Z,50.29
2019-01-02T17:06:43.563Z,49.43
2019-01-02T17:09:09.840Z,49.48
2019-01-02T17:11:36.027Z,49.70
2019-01-02T17:14:02.180Z,50.28
2019-01-02T17:16:28.336Z,50.24
2019-01-02T17:18:54.533Z,50.52
2019-01-02T17:21:20.807Z,50.04
2019-01-02T17:23:46.973Z,50.66
2019-01-02T17:26:13.280Z,50.15
2019-01-02T17:28:39.534Z,50.99
2019-01-02T17:31:05.789Z,49.49
2019-01-02T17:33:32.083Z,49.71
2019-01-02T17:35:58.240Z,49.48
2019-01-02T17:38:24.397Z,49.61
2019-01-02T17:43:50.030Z,49.55
2019-01-02T17:46:16.203Z,49.55
2019-01-02T17:48:42.360Z,49.27
2019-01-02T17:51:08.564Z,49.21
2019-01-02T17:53:34.838Z,49.25
2019-01-02T17:56:01.006Z,49.41
2019-01-02T17:58:27.295Z,49.51
2019-01-02T18:00:53.462Z,49.33
2019-01-02T18:03:19.727Z,49.25
2019-01-02T18:05:46.024Z,49.53
2019-01-02T18:08:12.289Z,49.68
2019-01-02T18:10:38.442Z,50.24
2019-01-02T18:13:04.653Z,50.05
2019-01-02T18:15:30.811Z,49.36
2019-01-02T18:17:57.111Z,51.06
2019-01-02T18:20:23.319Z,51.01
2019-01-02T18:22:49.467Z,51.04
2019-01-02T18:25:15.627Z,50.72
2019-01-02T18:27:41.915Z,50.15
2019-01-02T18:33:22.227Z,50.55
2019-01-02T18:35:48.376Z,51.04
2019-01-02T18:38:14.540Z,51.24
2019-01-02T18:40:40.724Z,50.99
2019-01-02T18:43:06.931Z,51.78
2019-01-02T18:45:33.368Z,51.32
2019-01-02T18:48:32.447Z,51.03
2019-01-02T18:50:58.604Z,51.42
2019-01-02T18:53:24.758Z,51.03
2019-01-02T18:55:50.953Z,51.51
2019-01-02T18:58:17.248Z,50.80
2019-01-02T19:00:43.416Z,51.38
2019-01-02T19:03:09.598Z,51.01
2019-01-02T19:05:35.765Z,51.30
2019-01-02T19:08:01.930Z,50.86
2019-01-02T19:10:28.113Z,51.64
2019-01-02T19:12:54.263Z,51.98
2019-01-02T19:15:20.420Z,51.67
2019-01-02T19:17:46.614Z,52.08
2019-01-02T19:20:12.762Z,50.79
2019-01-02T19:22:38.912Z,51.42
2019-01-02T19:25:05.133Z,51.15
2019-01-02T19:27:31.399Z,51.38
2019-01-02T19:29:57.558Z,52.16
2019-01-02T19:32:23.752Z,51.68
2019-01-02T19:34:50.012Z,51.01
2019-01-02T19:37:16.178Z,51.68
2019-01-02T19:39:42.376Z,51.80
2019-01-02T19:42:08.526Z,50.59
2019-01-02T19:44:34.681Z,51.02
2019-01-02T19:47:00.866Z,51.19
2019-01-02T19:49:27.031Z,51.27
2019-01-02T19:51:53.185Z,51.77
2019-01-02T19:54:19.475Z,52.46
2019-01-02T19:56:45.628Z,51.61
2019-01-02T19:59:11.786Z,52.40
2019-01-02T20:01:37.977Z,52.04
2019-01-02T20:04:04.198Z,52.29
2019-01-02T20:06:30.344Z,53.02
2019-01-02T20:08:56.635Z,52.85
2019-01-02T20:11:22.816Z,52.72
2019-01-02T20:13:48.972Z,53.20
2019-01-02T20:16:15.163Z,53.27
2019-01-02T20:18:41.322Z,53.03
2019-01-02T20:21:07.476Z,53.27
2019-01-02T20:23:33.685Z,54.27
2019-01-02T20:25:59.836Z,54.27
2019-01-02T20:28:25.992Z,54.49
2019-01-02T20:31:33.607Z,54.26
2019-01-02T20:33:59.924Z,54.88
2019-01-02T20:36:26.217Z,54.11
2019-01-02T20:38:52.434Z,55.75
2019-01-02T20:44:10.846Z,55.63
2019-01-02T20:46:37.105Z,53.93
2019-01-02T20:49:03.911Z,54.89
2019-01-02T20:51:30.231Z,54.69
2019-01-02T20:53:56.413Z,53.90
2019-01-02T20:56:22.594Z,55.80
2019-01-02T20:58:48.791Z,55.07
2019-01-02T21:01:14.947Z,55.44
2019-01-02T21:03:41.208Z,54.86
2019-01-02T21:06:07.417Z,56.49
2019-01-02T21:08:33.575Z,55.75
2019-01-02T21:10:59.738Z,55.62
2019-01-02T21:13:25.929Z,55.35
2019-01-02T21:15:52.083Z,56.62
2019-01-02T21:18:18.240Z,55.88
2019-01-02T21:20:44.530Z,57.32
2019-01-02T21:23:10.693Z,56.09
2019-01-02T21:25:36.848Z,57.21
2019-01-02T21:28:03.033Z,56.52
2019-01-02T21:30:29.189Z,56.21
2019-01-02T21:32:55.343Z,57.23
2019-01-02T21:35:21.535Z,56.95
2019-01-02T21:37:47.683Z,56.58
2019-01-02T21:40:13.840Z,57.38
2019-01-02T21:42:40.021Z,56.42
2019-01-02T21:45:06.213Z,57.29
2019-01-02T21:47:32.373Z,56.92
2019-01-02T21:49:58.570Z,56.86
2019-01-02T21:52:24.729Z,56.67
2019-01-02T21:54:50.887Z,57.48
2019-01-02T21:57:17.073Z,57.68
2019-01-02T21:59:43.229Z,56.53
2019-01-02T22:02:09.383Z,57.35
2019-01-02T22:04:35.576Z,57.55
2019-01-02T22:07:01.745Z,58.05
2019-01-02T22:09:27.905Z,57.09
2019-01-02T22:11:54.093Z,57.91
2019-01-02T22:14:20.249Z,56.82
2019-01-02T22:16:46.395Z,57.96
2019-01-02T22:19:12.580Z,58.04
2019-01-02T22:21:38.733Z,58.28
2019-01-02T22:24:04.889Z,57.06
2019-01-02T22:26:31.080Z,57.79
2019-01-02T22:28:57.239Z,56.96
2019-01-02T22:31:23.403Z,57.86
2019-01-02T22:33:49.580Z,57.26
2019-01-02T22:36:15.732Z,57.48
2019-01-02T22:38:41.993Z,56.91
2019-01-02T22:41:08.178Z,57.41
2019-01-02T22:43:34.342Z,57.00
2019-01-02T22:46:00.502Z,57.11
2019-01-02T22:48:26.690Z,56.32
2019-01-02T22:50:52.847Z,56.44
2019-01-02T22:53:19.011Z,56.90
2019-01-02T22:55:45.206Z,56.09
2019-01-02T22:58:11.362Z,56.64
2019-01-02T23:00:57.422Z,55.82
2019-01-02T23:03:43.460Z,57.15
2019-01-02T23:06:29.517Z,57.35
2019-01-02T23:09:15.523Z,57.50
2019-01-02T23:12:01.612Z,57.48
2019-01-02T23:14:47.618Z,57.97
2019-01-02T23:17:33.685Z,57.18
2019-01-02T23:20:19.714Z,57.92
2019-01-02T23:23:05.755Z,56.66
2019-01-02T23:25:51.764Z,57.76
2019-01-02T23:31:15.120Z,57.71
2019-01-02T23:34:01.129Z,59.01
2019-01-02T23:39:20.994Z,59.52
2019-01-02T23:42:07.012Z,58.76
2019-01-02T23:44:53.090Z,58.68
2019-01-02T23:47:39.097Z,58.60
2019-01-02T23:52:59.191Z,59.28
2019-01-02T23:55:45.212Z,59.40
2019-01-02T23:59:27.165Z,59.88
